Time;durP1;ratioP1;P1;durP2;ratioP2;P2;SDS_P1;SDS_P2;PMS_P1;PMS_P2;Temp;Humidity;BMP_temperature;BMP_pressure;BME280_temperature;BME280_humidity;BME280_pressure;Samples;Min_cycle;Max_cycle;Signal;HPM_P1;HPM_P2
2023/03/26 00:02:31;;;;;;;4.78;2.17;;;;;;;15.94;82.77;100925.94;12862676;22;99100;-80
2023/03/26 00:07:34;;;;;;;5.43;2.08;;;;;;;15.94;83.16;100960.44;12862916;22;99344;-81
2023/03/26 00:12:49;;;;;;;;;;;;;;;;;;;;;
2023/03/26 00:18:02;;;;;;;1.48;0.60;;;;;;;15.63;81.12;100980.63;12863179;22;99065;-79
2023/03/26 00:23:07;;;;;;;0.60;0.40;;;;;;;15.38;81.21;100991.56;12862713;22;99183;-80
2023/03/26 00:28:16;;;;;;;0.65;0.30;;;;;;;15.36;82.02;100989.88;12862016;22;98919;-81
2023/03/26 00:33:20;;;;;;;0.63;0.32;;;;;;;15.33;81.86;100988.25;12861127;22;98944;-81
2023/03/26 00:38:26;;;;;;;0.95;0.20;;;;;;;15.32;82.23;100988.34;12862075;22;98912;-81
2023/03/26 00:44:01;;;;;;;;;;;;;;;;;;;;;
2023/03/26 01:27:35;;;;;;;1.40;0.47;;;;;;;15.19;81.92;101013.66;12801242;22;97731;-81
2023/03/26 01:33:01;;;;;;;1.05;0.50;;;;;;;15.26;81.53;101020.44;12799945;22;99026;-81
2023/03/26 01:38:22;;;;;;;1.33;0.65;;;;;;;15.30;81.45;101019.38;12801175;22;98963;-81
2023/03/26 01:43:35;;;;;;;3.00;1.35;;;;;;;15.22;82.13;101017.03;12801469;22;98807;-81
2023/03/26 01:48:48;;;;;;;2.13;1.25;;;;;;;15.25;81.63;101026.66;12801359;22;98963;-81
2023/03/26 01:54:44;;;;;;;;;;;;;;;;;;;;;
2023/03/26 04:45:21;;;;;;;9.65;2.45;;;;;;;13.95;80.34;101057.97;12865315;22;98971;-81
2023/03/26 04:50:28;;;;;;;4.63;1.65;;;;;;;13.91;80.16;101049.28;12865583;22;99216;-81
2023/03/26 04:55:42;;;;;;;4.28;1.92;;;;;;;13.85;79.86;101041.59;12865287;22;98984;-81
2023/03/26 05:00:59;;;;;;;;;;;;;;;;;;;;;
2023/03/26 07:46:12;;;;;;;5.00;1.52;;;;;;;16.33;73.63;101238.25;12861559;22;98317;-82
2023/03/26 07:51:46;;;;;;;8.50;2.20;;;;;;;17.42;71.21;101242.50;12828347;22;98480;-82
2023/03/26 07:57:01;;;;;;;5.50;2.03;;;;;;;17.12;71.04;101248.53;12865910;22;98934;-83
2023/03/26 08:02:36;;;;;;;5.18;1.77;;;;;;;15.98;73.42;101260.28;12853668;22;101349;-82
2023/03/26 08:08:15;;;;;;;6.25;2.47;;;;;;;15.35;74.37;101278.13;12863541;22;99025;-83
2023/03/26 08:13:36;;;;;;;7.05;2.60;;;;;;;15.05;74.63;101278.50;12857019;22;99016;-83
2023/03/26 08:19:13;;;;;;;8.35;2.67;;;;;;;15.10;73.99;101288.00;12865717;22;99225;-82
2023/03/26 09:20:37;;;;;;;9.43;2.38;;;;;;;19.54;55.59;101349.69;12861183;22;96965;-81
2023/03/26 09:25:58;;;;;;;11.90;2.33;;;;;;;19.79;56.04;101352.59;12847870;22;98977;-81
2023/03/26 09:31:44;;;;;;;9.45;2.05;;;;;;;21.70;48.72;101341.13;12864740;22;99304;-82
2023/03/26 09:37:17;;;;;;;8.73;1.90;;;;;;;21.07;49.50;101347.13;12865045;22;99115;-81
2023/03/26 09:42:43;;;;;;;12.45;2.22;;;;;;;19.43;52.33;101349.44;12863385;22;98886;-80
2023/03/26 09:48:42;;;;;;;11.05;2.45;;;;;;;20.51;50.37;101355.28;12850925;22;98516;-81
2023/03/26 10:51:47;;;;;;;7.55;2.70;;;;;;;18.01;52.58;101356.53;12798617;22;96924;-80
2023/03/26 10:56:52;;;;;;;15.27;3.00;;;;;;;17.74;53.18;101361.50;12860136;22;98983;-80
2023/03/26 11:02:28;;;;;;;7.38;2.30;;;;;;;17.57;52.67;101364.16;12863811;22;99045;-80
2023/03/26 11:07:42;;;;;;;15.52;3.08;;;;;;;17.78;53.28;101363.06;12864167;22;98868;-81
2023/03/26 11:13:12;;;;;;;9.23;2.60;;;;;;;19.90;49.31;101350.16;12863857;22;98986;-81
2023/03/26 12:24:30;;;;;;;10.25;2.92;;;;;;;24.80;33.91;101331.91;12922093;22;97079;-82
2023/03/26 12:30:04;;;;;;;8.88;3.20;;;;;;;25.54;32.17;101324.81;12926564;22;98323;-81
2023/03/26 13:28:26;;;;;;;;;;;;;;;;;;;;;
2023/03/26 13:33:40;;;;;;;9.10;2.55;;;;;;;24.72;35.58;101296.66;12927668;22;99074;-81
2023/03/26 13:39:02;;;;;;;12.30;3.30;;;;;;;24.54;36.42;101291.91;12928876;22;98966;-81
2023/03/26 13:44:17;;;;;;;7.68;2.38;;;;;;;24.46;35.74;101283.63;12928836;22;99314;-81
2023/03/26 13:49:35;;;;;;;11.43;2.65;;;;;;;24.27;35.67;101278.81;12929089;22;99042;-81
2023/03/26 13:54:49;;;;;;;8.02;2.85;;;;;;;24.05;33.81;101276.13;12928946;22;97896;-82
2023/03/26 14:00:00;;;;;;;9.45;2.90;;;;;;;24.60;36.67;101280.66;12929350;22;99286;-81
2023/03/26 14:05:15;;;;;;;10.13;3.10;;;;;;;24.30;36.57;101278.63;12928171;22;98964;-82
2023/03/26 14:10:29;;;;;;;8.93;2.50;;;;;;;24.04;36.25;101268.19;12929566;22;97945;-82
2023/03/26 14:15:42;;;;;;;8.82;2.55;;;;;;;23.31;35.38;101265.81;12927621;22;97854;-81
2023/03/26 14:21:12;;;;;;;10.38;2.90;;;;;;;23.37;37.05;101259.13;12928044;22;99041;-80
2023/03/26 14:26:58;;;;;;;;;;;;;;;;;;;;;
2023/03/26 14:32:29;;;;;;;7.25;2.53;;;;;;;22.59;38.05;101245.28;12927734;22;99288;-81
2023/03/26 14:37:52;;;;;;;8.35;2.20;;;;;;;21.92;37.64;101239.50;12928198;22;98922;-80
2023/03/26 14:43:12;;;;;;;8.25;2.70;;;;;;;21.28;40.11;101229.75;12928170;22;99318;-80
2023/03/26 14:48:57;;;;;;;6.93;2.60;;;;;;;21.41;39.56;101234.16;12928356;22;98917;-80
2023/03/26 14:54:05;;;;;;;12.13;2.70;;;;;;;21.57;40.81;101230.44;12927947;22;99011;-81
2023/03/26 15:00:00;;;;;;;7.13;2.45;;;;;;;21.05;39.88;101223.22;12927183;22;99149;-81
2023/03/26 15:05:48;;;;;;;11.48;2.50;;;;;;;21.04;39.37;101218.84;12793197;22;99075;-81
2023/03/26 15:11:19;;;;;;;9.93;2.58;;;;;;;20.99;38.97;101207.59;12669648;23;98728;-81
2023/03/26 15:16:50;;;;;;;7.40;2.50;;;;;;;20.91;40.82;101220.63;12899819;22;98838;-81
2023/03/26 15:22:30;;;;;;;8.07;2.38;;;;;;;20.88;40.01;101214.66;12926457;22;98929;-82
2023/03/26 15:28:17;;;;;;;10.88;2.28;;;;;;;20.99;41.18;101207.59;12927362;22;98940;-82
2023/03/26 15:34:20;;;;;;;;;;;;;;;;;;;;;
2023/03/26 16:36:42;;;;;;;10.55;2.58;;;;;;;19.93;41.86;101195.00;12924603;22;97016;-81
2023/03/26 16:42:05;;;;;;;9.90;2.53;;;;;;;19.45;41.33;101197.19;12929308;22;98866;-81
2023/03/26 16:47:22;;;;;;;11.50;3.05;;;;;;;19.60;41.38;101196.22;12929484;22;99075;-81
2023/03/26 16:52:44;;;;;;;7.60;2.63;;;;;;;19.38;40.61;101202.00;12929296;22;99278;-81
2023/03/26 16:57:56;;;;;;;7.50;2.70;;;;;;;19.29;41.37;101197.22;12930305;22;99065;-81
2023/03/26 17:03:24;;;;;;;8.35;2.10;;;;;;;19.45;43.36;101203.38;12928841;22;99148;-82
2023/03/26 17:08:56;;;;;;;;;;;;;;;;;;;;;
2023/03/26 17:15:04;;;;;;;;;;;;;;;;;;;;;
2023/03/26 17:40:36;;;;;;;11.63;3.10;;;;;;;19.12;44.04;101208.06;12205291;23;98393;-81
2023/03/26 17:45:57;;;;;;;10.80;2.58;;;;;;;19.06;44.83;101200.44;12408053;22;100600;-81
2023/03/26 17:51:22;;;;;;;10.90;3.53;;;;;;;19.01;44.77;101205.16;12732320;22;98831;-81
2023/03/26 17:56:41;;;;;;;;;;;;;;;;;;;;;
2023/03/26 18:02:06;;;;;;;12.63;3.95;;;;;;;18.88;47.31;101199.72;12775894;22;98966;-81
2023/03/26 18:07:30;;;;;;;15.90;3.05;;;;;;;18.74;47.19;101201.44;12889144;22;99111;-81
2023/03/26 18:13:16;;;;;;;13.43;3.22;;;;;;;18.35;50.48;101190.38;12927352;22;99189;-81
2023/03/26 18:18:28;;;;;;;16.02;3.00;;;;;;;18.29;50.72;101191.59;12851739;22;97986;-81
2023/03/26 18:23:39;;;;;;;13.18;3.35;;;;;;;18.07;52.30;101185.75;12928155;22;98983;-81
2023/03/26 18:28:51;;;;;;;10.10;3.58;;;;;;;17.91;52.78;101185.72;12928372;22;98866;-81
2023/03/26 18:34:03;;;;;;;12.88;4.43;;;;;;;17.67;53.21;101195.06;12927300;22;99301;-82
2023/03/26 18:39:12;;;;;;;13.52;3.70;;;;;;;17.40;54.68;101195.63;12927974;22;98919;-81
2023/03/26 18:44:19;;;;;;;11.52;3.38;;;;;;;17.23;54.94;101193.84;12927834;22;99296;-82
2023/03/26 18:49:33;;;;;;;10.10;3.00;;;;;;;16.88;56.77;101192.97;12929193;22;98993;-81
2023/03/26 18:54:36;;;;;;;15.32;4.30;;;;;;;16.82;56.11;101200.41;12928098;22;99132;-81
2023/03/26 18:59:44;;;;;;;9.55;2.97;;;;;;;16.70;56.11;101204.56;12927407;22;99178;-81
2023/03/26 19:04:53;;;;;;;11.80;3.00;;;;;;;16.77;55.88;101213.06;12926782;22;99032;-81
2023/03/26 19:10:11;;;;;;;10.73;3.38;;;;;;;16.52;57.71;101209.88;12927933;22;99053;-82
2023/03/26 19:15:16;;;;;;;15.10;4.18;;;;;;;16.43;59.34;101218.31;12928118;22;97964;-82
2023/03/26 19:20:26;;;;;;;12.88;3.97;;;;;;;16.39;58.65;101219.38;12926967;22;97781;-82
2023/03/26 19:25:42;;;;;;;17.15;3.92;;;;;;;16.21;59.53;101230.84;12927826;22;99001;-81
2023/03/26 19:30:50;;;;;;;9.30;3.25;;;;;;;16.09;60.37;101239.41;12927256;22;98968;-82
2023/03/26 19:36:22;;;;;;;13.10;3.85;;;;;;;15.87;61.23;101245.69;12927345;22;99017;-82
2023/03/26 19:41:31;;;;;;;20.95;4.18;;;;;;;15.83;61.33;101253.88;12928202;22;98890;-82
2023/03/26 19:46:41;;;;;;;13.60;3.72;;;;;;;15.40;62.56;101262.88;12927098;22;98854;-82
2023/03/26 19:52:16;;;;;;;10.27;3.72;;;;;;;15.36;62.98;101266.56;12926966;22;98946;-82
2023/03/26 19:57:41;;;;;;;;;;;;;;;;;;;;;
2023/03/26 20:02:51;;;;;;;15.38;4.22;;;;;;;15.13;63.66;101277.25;12921601;22;97938;-82
2023/03/26 20:07:59;;;;;;;14.38;4.88;;;;;;;15.06;63.87;101278.44;12926890;22;98966;-82
2023/03/26 20:13:03;;;;;;;10.60;4.53;;;;;;;15.12;63.90;101291.44;12926768;22;99301;-82
2023/03/26 20:18:11;;;;;;;14.85;4.65;;;;;;;14.89;64.80;101298.63;12927014;22;98925;-82
2023/03/26 20:23:17;;;;;;;12.65;4.35;;;;;;;14.86;64.85;101306.69;12926631;22;99211;-82
2023/03/26 20:28:28;;;;;;;17.65;4.82;;;;;;;14.82;65.05;101313.91;12926575;22;98750;-82
2023/03/26 20:33:37;;;;;;;14.07;4.10;;;;;;;14.89;64.86;101318.03;12926821;22;102194;-82
2023/03/26 20:38:44;;;;;;;14.40;4.22;;;;;;;14.73;65.25;101314.28;12925800;22;99006;-82
2023/03/26 20:43:50;;;;;;;18.58;4.28;;;;;;;14.66;65.49;101318.09;12926348;22;98955;-82
2023/03/26 20:49:09;;;;;;;13.70;4.57;;;;;;;14.53;65.84;101328.31;12924661;22;99026;-82
2023/03/26 20:54:24;;;;;;;17.88;4.25;;;;;;;14.48;66.38;101329.41;12925687;22;98928;-82
2023/03/26 20:59:29;;;;;;;11.27;3.92;;;;;;;14.50;66.30;101332.84;12927441;22;99009;-82
2023/03/26 21:04:35;;;;;;;17.10;4.13;;;;;;;14.43;66.28;101337.53;12929076;22;99192;-82
2023/03/26 21:44:17;;;;;;;16.02;4.15;;;;;;;13.83;68.01;101341.53;12904611;22;97037;-82
2023/03/26 21:49:22;;;;;;;15.03;4.20;;;;;;;13.80;68.31;101344.28;12928320;22;98142;-82
2023/03/26 21:54:31;;;;;;;12.18;4.65;;;;;;;14.08;67.61;101343.28;12928762;22;99367;-81
2023/03/26 21:59:46;;;;;;;13.98;4.85;;;;;;;14.16;67.44;101340.34;12928752;22;99178;-81
2023/03/26 22:05:14;;;;;;;13.60;4.13;;;;;;;14.24;67.20;101339.16;12928288;22;99055;-81
2023/03/26 22:10:18;;;;;;;15.68;4.50;;;;;;;13.81;68.28;101336.31;12918914;22;97964;-82
2023/03/26 22:15:25;;;;;;;14.38;3.97;;;;;;;13.89;68.34;101328.94;12928574;22;99126;-82
2023/03/26 22:20:34;;;;;;;11.48;4.45;;;;;;;13.86;68.21;101323.78;12929080;22;99040;-81
2023/03/26 22:25:43;;;;;;;13.05;4.82;;;;;;;14.04;68.04;101322.28;12928525;22;98966;-82
2023/03/26 22:30:51;;;;;;;17.77;4.90;;;;;;;13.90;68.00;101311.31;12928225;22;99516;-81
2023/03/26 22:36:10;;;;;;;;;;;;;;;;;;;;;
2023/03/26 22:42:00;;;;;;;;;;;;;;;;;;;;;
2023/03/26 23:20:11;;;;;;;16.42;5.38;;;;;;;13.28;69.18;101309.06;12908792;22;96908;-81
2023/03/26 23:25:37;;;;;;;18.07;4.93;;;;;;;13.00;69.36;101317.97;12918004;22;98902;-81
